sensor_id;sensor_type;location;lat;lon;timestamp;pressure;altitude;pressure_sealevel;temperature;humidity
73240;BME280;61452;40.054;4.110;2024-03-08T00:04:07;101096.22;;;14.88;100.00
73240;BME280;61452;40.054;4.110;2024-03-08T00:09:10;101103.13;;;14.90;100.00
73240;BME280;61452;40.054;4.110;2024-03-08T00:14:12;101095.22;;;14.90;100.00
73240;BME280;61452;40.054;4.110;2024-03-08T00:19:14;101061.81;;;14.89;100.00
73240;BME280;61452;40.054;4.110;2024-03-08T00:24:17;101030.22;;;14.88;100.00
73240;BME280;61452;40.054;4.110;2024-03-08T00:29:19;101026.72;;;14.87;100.00
73240;BME280;61452;40.054;4.110;2024-03-08T00:34:21;101017.78;;;14.90;100.00
73240;BME280;61452;40.054;4.110;2024-03-08T00:39:24;101009.84;;;14.90;100.00
73240;BME280;61452;40.054;4.110;2024-03-08T00:44:27;101012.41;;;14.91;100.00
73240;BME280;61452;40.054;4.110;2024-03-08T00:49:29;101022.19;;;14.89;100.00
73240;BME280;61452;40.054;4.110;2024-03-08T00:54:31;100994.84;;;14.90;100.00
73240;BME280;61452;40.054;4.110;2024-03-08T00:59:34;100970.31;;;14.88;100.00
73240;BME280;61452;40.054;4.110;2024-03-08T01:04:36;100972.03;;;14.89;100.00
73240;BME280;61452;40.054;4.110;2024-03-08T01:09:38;100967.59;;;14.90;100.00
73240;BME280;61452;40.054;4.110;2024-03-08T01:14:41;100971.06;;;14.90;100.00
73240;BME280;61452;40.054;4.110;2024-03-08T01:19:43;100976.38;;;14.90;100.00
73240;BME280;61452;40.054;4.110;2024-03-08T01:24:46;100984.38;;;14.89;100.00
73240;BME280;61452;40.054;4.110;2024-03-08T01:29:49;100987.00;;;14.89;100.00
73240;BME280;61452;40.054;4.110;2024-03-08T01:34:51;100980.88;;;14.88;100.00
73240;BME280;61452;40.054;4.110;2024-03-08T01:39:53;100962.22;;;14.91;100.00
73240;BME280;61452;40.054;4.110;2024-03-08T01:44:55;100954.38;;;14.90;100.00
73240;BME280;61452;40.054;4.110;2024-03-08T01:49:57;100947.41;;;14.89;100.00
73240;BME280;61452;40.054;4.110;2024-03-08T01:55:00;100937.69;;;14.89;100.00
73240;BME280;61452;40.054;4.110;2024-03-08T02:00:04;100908.72;;;14.88;100.00
73240;BME280;61452;40.054;4.110;2024-03-08T02:05:07;100896.28;;;14.90;100.00
73240;BME280;61452;40.054;4.110;2024-03-08T02:10:10;100853.94;;;14.91;100.00
73240;BME280;61452;40.054;4.110;2024-03-08T02:15:14;100830.34;;;14.88;100.00
73240;BME280;61452;40.054;4.110;2024-03-08T02:20:17;100819.91;;;14.87;100.00
73240;BME280;61452;40.054;4.110;2024-03-08T02:25:21;100803.09;;;14.88;100.00
73240;BME280;61452;40.054;4.110;2024-03-08T02:30:24;100804.78;;;14.89;100.00
73240;BME280;61452;40.054;4.110;2024-03-08T02:35:27;100812.63;;;14.90;100.00
73240;BME280;61452;40.054;4.110;2024-03-08T02:40:30;100811.69;;;14.91;100.00
73240;BME280;61452;40.054;4.110;2024-03-08T02:45:32;100817.16;;;14.88;100.00
73240;BME280;61452;40.054;4.110;2024-03-08T02:50:35;100807.53;;;14.87;100.00
73240;BME280;61452;40.054;4.110;2024-03-08T02:55:41;100803.94;;;14.88;100.00
73240;BME280;61452;40.054;4.110;2024-03-08T03:00:44;100784.59;;;14.88;100.00
73240;BME280;61452;40.054;4.110;2024-03-08T03:05:47;100772.16;;;14.90;100.00
73240;BME280;61452;40.054;4.110;2024-03-08T03:10:50;100768.66;;;14.89;100.00
73240;BME280;61452;40.054;4.110;2024-03-08T03:15:52;100764.25;;;14.90;100.00
73240;BME280;61452;40.054;4.110;2024-03-08T03:20:54;100770.47;;;14.89;100.00
73240;BME280;61452;40.054;4.110;2024-03-08T03:25:56;100773.09;;;14.89;100.00
73240;BME280;61452;40.054;4.110;2024-03-08T03:30:59;100779.22;;;14.89;100.00
73240;BME280;61452;40.054;4.110;2024-03-08T03:36:02;100793.28;;;14.90;100.00
73240;BME280;61452;40.054;4.110;2024-03-08T03:41:04;100792.53;;;14.88;100.00
73240;BME280;61452;40.054;4.110;2024-03-08T03:46:12;100799.72;;;14.86;100.00
73240;BME280;61452;40.054;4.110;2024-03-08T03:51:14;100798.66;;;14.88;100.00
73240;BME280;61452;40.054;4.110;2024-03-08T03:56:17;100803.84;;;14.90;100.00
73240;BME280;61452;40.054;4.110;2024-03-08T04:01:19;100817.91;;;14.90;100.00
73240;BME280;61452;40.054;4.110;2024-03-08T04:06:22;100807.34;;;14.90;100.00
73240;BME280;61452;40.054;4.110;2024-03-08T04:11:24;100811.78;;;14.90;100.00
73240;BME280;61452;40.054;4.110;2024-03-08T04:16:26;100817.16;;;14.88;100.00
73240;BME280;61452;40.054;4.110;2024-03-08T04:21:30;100815.34;;;14.89;100.00
73240;BME280;61452;40.054;4.110;2024-03-08T04:26:33;100803.22;;;14.86;100.00
73240;BME280;61452;40.054;4.110;2024-03-08T04:31:36;100804.88;;;14.87;100.00
73240;BME280;61452;40.054;4.110;2024-03-08T04:36:40;100805.72;;;14.88;100.00
73240;BME280;61452;40.054;4.110;2024-03-08T04:41:42;100803.00;;;14.89;100.00
73240;BME280;61452;40.054;4.110;2024-03-08T04:46:48;100786.22;;;14.90;100.00
73240;BME280;61452;40.054;4.110;2024-03-08T04:51:50;100803.09;;;14.88;100.00
73240;BME280;61452;40.054;4.110;2024-03-08T04:56:52;100785.47;;;14.88;100.00
73240;BME280;61452;40.054;4.110;2024-03-08T05:01:54;100774.03;;;14.88;100.00
73240;BME280;61452;40.054;4.110;2024-03-08T05:06:57;100796.88;;;14.89;100.00
73240;BME280;61452;40.054;4.110;2024-03-08T05:12:03;100807.66;;;14.86;100.00
73240;BME280;61452;40.054;4.110;2024-03-08T05:17:05;100821.47;;;14.89;100.00
73240;BME280;61452;40.054;4.110;2024-03-08T05:22:08;100821.47;;;14.89;100.00
73240;BME280;61452;40.054;4.110;2024-03-08T05:27:11;100826.88;;;14.88;100.00
73240;BME280;61452;40.054;4.110;2024-03-08T05:32:15;100847.91;;;14.89;100.00
73240;BME280;61452;40.054;4.110;2024-03-08T05:37:17;100860.16;;;14.90;100.00
73240;BME280;61452;40.054;4.110;2024-03-08T05:42:22;100867.31;;;14.88;100.00
73240;BME280;61452;40.054;4.110;2024-03-08T05:47:24;100848.75;;;14.90;100.00
73240;BME280;61452;40.054;4.110;2024-03-08T05:52:29;100837.66;;;14.85;100.00
73240;BME280;61452;40.054;4.110;2024-03-08T05:57:31;100836.47;;;14.89;100.00
73240;BME280;61452;40.054;4.110;2024-03-08T06:02:34;100823.28;;;14.89;100.00
73240;BME280;61452;40.054;4.110;2024-03-08T06:07:37;100825.81;;;14.90;100.00
73240;BME280;61452;40.054;4.110;2024-03-08T06:12:42;100822.25;;;14.91;100.00
73240;BME280;61452;40.054;4.110;2024-03-08T06:17:44;100825.72;;;14.92;100.00
73240;BME280;61452;40.054;4.110;2024-03-08T06:22:47;100855.72;;;14.91;100.00
73240;BME280;61452;40.054;4.110;2024-03-08T06:27:49;100846.94;;;14.90;100.00
73240;BME280;61452;40.054;4.110;2024-03-08T06:32:51;100840.63;;;14.93;100.00
73240;BME280;61452;40.054;4.110;2024-03-08T06:37:53;100840.81;;;14.90;100.00
73240;BME280;61452;40.054;4.110;2024-03-08T06:42:56;100808.28;;;14.89;100.00
73240;BME280;61452;40.054;4.110;2024-03-08T06:47:58;100790.66;;;14.90;100.00
73240;BME280;61452;40.054;4.110;2024-03-08T06:53:00;100774.81;;;14.90;100.00
73240;BME280;61452;40.054;4.110;2024-03-08T06:58:03;100793.38;;;14.88;100.00
73240;BME280;61452;40.054;4.110;2024-03-08T07:03:08;100795.94;;;14.90;100.00
73240;BME280;61452;40.054;4.110;2024-03-08T07:08:14;100809.03;;;14.91;100.00
73240;BME280;61452;40.054;4.110;2024-03-08T07:13:17;100819.69;;;14.90;100.00
73240;BME280;61452;40.054;4.110;2024-03-08T07:18:19;100821.47;;;14.89;100.00
73240;BME280;61452;40.054;4.110;2024-03-08T07:23:22;100818.75;;;14.91;100.00
73240;BME280;61452;40.054;4.110;2024-03-08T07:28:42;100838.19;;;14.90;100.00
73240;BME280;61452;40.054;4.110;2024-03-08T07:33:44;100838.19;;;14.90;100.00
73240;BME280;61452;40.054;4.110;2024-03-08T07:38:47;100836.56;;;14.87;100.00
73240;BME280;61452;40.054;4.110;2024-03-08T07:43:49;100838.09;;;14.91;100.00
73240;BME280;61452;40.054;4.110;2024-03-08T07:48:51;100838.94;;;14.92;100.00
73240;BME280;61452;40.054;4.110;2024-03-08T07:53:54;100821.31;;;14.92;100.00
73240;BME280;61452;40.054;4.110;2024-03-08T07:59:02;100858.38;;;14.91;100.00
73240;BME280;61452;40.054;4.110;2024-03-08T08:04:05;100854.78;;;14.92;100.00
73240;BME280;61452;40.054;4.110;2024-03-08T08:09:08;100869.25;;;14.86;100.00
73240;BME280;61452;40.054;4.110;2024-03-08T08:14:16;100868.84;;;14.92;100.00
73240;BME280;61452;40.054;4.110;2024-03-08T08:19:19;100877.78;;;14.90;100.00
73240;BME280;61452;40.054;4.110;2024-03-08T08:24:21;100877.88;;;14.88;100.00
73240;BME280;61452;40.054;4.110;2024-03-08T08:29:23;100879.50;;;14.91;100.00
73240;BME280;61452;40.054;4.110;2024-03-08T08:34:26;100866.19;;;14.92;100.00
73240;BME280;61452;40.054;4.110;2024-03-08T08:39:28;100853.84;;;14.93;100.00
73240;BME280;61452;40.054;4.110;2024-03-08T08:44:30;100853.94;;;14.91;100.00
73240;BME280;61452;40.054;4.110;2024-03-08T08:49:33;100883.06;;;14.90;100.00
73240;BME280;61452;40.054;4.110;2024-03-08T08:54:35;100884.88;;;14.89;100.00
73240;BME280;61452;40.054;4.110;2024-03-08T08:59:38;100890.16;;;14.89;100.00
73240;BME280;61452;40.054;4.110;2024-03-08T09:04:41;100885.63;;;14.91;100.00
73240;BME280;61452;40.054;4.110;2024-03-08T09:09:43;100914.47;;;14.94;100.00
73240;BME280;61452;40.054;4.110;2024-03-08T09:14:46;100906.66;;;14.93;100.00
73240;BME280;61452;40.054;4.110;2024-03-08T09:19:48;100917.22;;;14.93;100.00
73240;BME280;61452;40.054;4.110;2024-03-08T09:24:50;100913.81;;;14.91;100.00
73240;BME280;61452;40.054;4.110;2024-03-08T09:29:52;100918.16;;;14.92;100.00
73240;BME280;61452;40.054;4.110;2024-03-08T09:34:54;100923.44;;;14.92;100.00
73240;BME280;61452;40.054;4.110;2024-03-08T09:39:58;100908.53;;;14.91;100.00
73240;BME280;61452;40.054;4.110;2024-03-08T09:45:01;100910.97;;;14.94;100.00
73240;BME280;61452;40.054;4.110;2024-03-08T09:50:05;100949.66;;;14.95;100.00
73240;BME280;61452;40.054;4.110;2024-03-08T09:55:08;100951.56;;;14.93;100.00
73240;BME280;61452;40.054;4.110;2024-03-08T10:00:13;100942.88;;;14.91;100.00
73240;BME280;61452;40.054;4.110;2024-03-08T10:05:26;100951.75;;;14.90;100.00
73240;BME280;61452;40.054;4.110;2024-03-08T10:10:28;100922.69;;;14.90;100.00
73240;BME280;61452;40.054;4.110;2024-03-08T10:15:31;100959.88;;;14.87;100.00
73240;BME280;61452;40.054;4.110;2024-03-08T10:20:35;100981.56;;;14.92;100.00
73240;BME280;61452;40.054;4.110;2024-03-08T10:25:37;100962.13;;;14.93;100.00
73240;BME280;61452;40.054;4.110;2024-03-08T10:30:47;100951.75;;;14.90;100.00
73240;BME280;61452;40.054;4.110;2024-03-08T10:35:50;100943.72;;;14.91;100.00
73240;BME280;61452;40.054;4.110;2024-03-08T10:40:53;100934.09;;;14.90;100.00
73240;BME280;61452;40.054;4.110;2024-03-08T10:51:11;100944.66;;;14.90;100.00
73240;BME280;61452;40.054;4.110;2024-03-08T10:56:13;100954.19;;;14.93;100.00
73240;BME280;61452;40.054;4.110;2024-03-08T11:01:16;100947.13;;;14.93;100.00
73240;BME280;61452;40.054;4.110;2024-03-08T11:11:39;100941.00;;;14.93;100.00
73240;BME280;61452;40.054;4.110;2024-03-08T11:16:44;100942.78;;;14.92;100.00
73240;BME280;61452;40.054;4.110;2024-03-08T11:21:47;100941.94;;;14.92;100.00
73240;BME280;61452;40.054;4.110;2024-03-08T11:26:57;100939.31;;;14.92;100.00
73240;BME280;61452;40.054;4.110;2024-03-08T11:32:05;100932.09;;;14.94;100.00
73240;BME280;61452;40.054;4.110;2024-03-08T11:37:18;100923.38;;;14.93;100.00
73240;BME280;61452;40.054;4.110;2024-03-08T11:42:21;100917.97;;;14.95;100.00
73240;BME280;61452;40.054;4.110;2024-03-08T11:47:23;100914.38;;;14.96;100.00
73240;BME280;61452;40.054;4.110;2024-03-08T11:52:28;100920.72;;;14.93;100.00
73240;BME280;61452;40.054;4.110;2024-03-08T11:57:31;100915.53;;;14.92;100.00
73240;BME280;61452;40.054;4.110;2024-03-08T12:02:34;100909.31;;;14.93;100.00
73240;BME280;61452;40.054;4.110;2024-03-08T12:07:40;100903.81;;;14.96;100.00
73240;BME280;61452;40.054;4.110;2024-03-08T12:12:53;100900.31;;;14.95;100.00
73240;BME280;61452;40.054;4.110;2024-03-08T12:17:56;100886.25;;;14.95;100.00
73240;BME280;61452;40.054;4.110;2024-03-08T12:22:59;100887.13;;;14.95;100.00
73240;BME280;61452;40.054;4.110;2024-03-08T12:28:12;100893.34;;;14.94;100.00
73240;BME280;61452;40.054;4.110;2024-03-08T12:33:16;100880.88;;;14.96;100.00
73240;BME280;61452;40.054;4.110;2024-03-08T12:38:23;100872.22;;;14.94;100.00
73240;BME280;61452;40.054;4.110;2024-03-08T12:43:28;100884.56;;;14.94;100.00
73240;BME280;61452;40.054;4.110;2024-03-08T12:48:37;100874.75;;;14.96;100.00
73240;BME280;61452;40.054;4.110;2024-03-08T12:53:43;100872.34;;;14.93;100.00
73240;BME280;61452;40.054;4.110;2024-03-08T12:58:48;100868.63;;;14.95;100.00
73240;BME280;61452;40.054;4.110;2024-03-08T13:03:51;100847.50;;;14.95;100.00
73240;BME280;61452;40.054;4.110;2024-03-08T13:08:53;100850.13;;;14.95;100.00
73240;BME280;61452;40.054;4.110;2024-03-08T13:13:55;100854.56;;;14.95;100.00
73240;BME280;61452;40.054;4.110;2024-03-08T13:18:57;100853.63;;;14.96;100.00
73240;BME280;61452;40.054;4.110;2024-03-08T13:23:59;100847.41;;;14.97;100.00
73240;BME280;61452;40.054;4.110;2024-03-08T13:29:03;100846.56;;;14.96;100.00
73240;BME280;61452;40.054;4.110;2024-03-08T13:34:08;100847.41;;;14.97;100.00
73240;BME280;61452;40.054;4.110;2024-03-08T13:39:13;100837.78;;;14.96;100.00
73240;BME280;61452;40.054;4.110;2024-03-08T13:44:18;100835.13;;;14.96;100.00
73240;BME280;61452;40.054;4.110;2024-03-08T13:49:20;100825.50;;;14.95;100.00
73240;BME280;61452;40.054;4.110;2024-03-08T13:54:22;100827.97;;;14.98;100.00
73240;BME280;61452;40.054;4.110;2024-03-08T13:59:24;100835.81;;;15.00;100.00
73240;BME280;61452;40.054;4.110;2024-03-08T14:04:31;100833.16;;;15.00;100.00
73240;BME280;61452;40.054;4.110;2024-03-08T14:09:33;100838.53;;;14.98;100.00
73240;BME280;61452;40.054;4.110;2024-03-08T14:14:40;100848.16;;;14.99;100.00
73240;BME280;61452;40.054;4.110;2024-03-08T14:19:44;100860.50;;;14.98;100.00
73240;BME280;61452;40.054;4.110;2024-03-08T14:24:46;100874.56;;;14.99;100.00
73240;BME280;61452;40.054;4.110;2024-03-08T14:29:49;100872.56;;;15.03;100.00
73240;BME280;61452;40.054;4.110;2024-03-08T14:34:52;100868.13;;;15.03;100.00
73240;BME280;61452;40.054;4.110;2024-03-08T14:39:54;100869.16;;;15.01;100.00
73240;BME280;61452;40.054;4.110;2024-03-08T14:44:56;100866.53;;;15.01;100.00
73240;BME280;61452;40.054;4.110;2024-03-08T14:49:59;100861.16;;;15.02;100.00
73240;BME280;61452;40.054;4.110;2024-03-08T14:55:02;100857.75;;;15.00;100.00
73240;BME280;61452;40.054;4.110;2024-03-08T15:00:05;100850.69;;;15.01;100.00
73240;BME280;61452;40.054;4.110;2024-03-08T15:05:09;100856.72;;;15.03;100.00
73240;BME280;61452;40.054;4.110;2024-03-08T15:10:13;100860.28;;;15.02;100.00
73240;BME280;61452;40.054;4.110;2024-03-08T15:15:22;100863.69;;;15.04;100.00
73240;BME280;61452;40.054;4.110;2024-03-08T15:20:28;100854.16;;;15.01;100.00
73240;BME280;61452;40.054;4.110;2024-03-08T15:25:32;100849.72;;;15.02;100.00
73240;BME280;61452;40.054;4.110;2024-03-08T15:30:36;100858.50;;;15.02;100.00
73240;BME280;61452;40.054;4.110;2024-03-08T15:35:41;100853.22;;;15.02;100.00
73240;BME280;61452;40.054;4.110;2024-03-08T15:40:44;100864.53;;;15.04;100.00
73240;BME280;61452;40.054;4.110;2024-03-08T15:45:46;100856.53;;;15.06;100.00
73240;BME280;61452;40.054;4.110;2024-03-08T15:50:48;100856.53;;;15.06;100.00
73240;BME280;61452;40.054;4.110;2024-03-08T15:55:51;100858.41;;;15.04;100.00
73240;BME280;61452;40.054;4.110;2024-03-08T16:00:53;100847.00;;;15.03;100.00
73240;BME280;61452;40.054;4.110;2024-03-08T16:05:57;100847.84;;;15.04;100.00
73240;BME280;61452;40.054;4.110;2024-03-08T16:10:59;100853.97;;;15.04;100.00
73240;BME280;61452;40.054;4.110;2024-03-08T16:16:02;100857.47;;;15.05;100.00
73240;BME280;61452;40.054;4.110;2024-03-08T16:21:05;100853.75;;;15.07;100.00
73240;BME280;61452;40.054;4.110;2024-03-08T16:26:09;100865.19;;;15.08;100.00
73240;BME280;61452;40.054;4.110;2024-03-08T16:31:12;100861.81;;;15.06;100.00
73240;BME280;61452;40.054;4.110;2024-03-08T16:36:16;100864.44;;;15.06;100.00
73240;BME280;61452;40.054;4.110;2024-03-08T16:41:18;100865.19;;;15.08;100.00
73240;BME280;61452;40.054;4.110;2024-03-08T16:46:23;100869.59;;;15.07;100.00
73240;BME280;61452;40.054;4.110;2024-03-08T16:51:29;100868.66;;;15.08;100.00
73240;BME280;61452;40.054;4.110;2024-03-08T16:56:31;100870.38;;;15.09;100.00
73240;BME280;61452;40.054;4.110;2024-03-08T17:01:33;100880.00;;;15.10;100.00
73240;BME280;61452;40.054;4.110;2024-03-08T17:06:36;100874.81;;;15.09;100.00
73240;BME280;61452;40.054;4.110;2024-03-08T17:11:39;100868.75;;;15.07;100.00
73240;BME280;61452;40.054;4.110;2024-03-08T17:16:42;100867.09;;;15.06;100.00
73240;BME280;61452;40.054;4.110;2024-03-08T17:21:44;100866.13;;;15.07;100.00
73240;BME280;61452;40.054;4.110;2024-03-08T17:26:46;100876.59;;;15.08;100.00
73240;BME280;61452;40.054;4.110;2024-03-08T17:31:49;100888.63;;;15.12;100.00
73240;BME280;61452;40.054;4.110;2024-03-08T17:36:51;100890.56;;;15.10;100.00
73240;BME280;61452;40.054;4.110;2024-03-08T17:42:01;100899.44;;;15.09;100.00
73240;BME280;61452;40.054;4.110;2024-03-08T17:47:03;100895.19;;;15.07;100.00
73240;BME280;61452;40.054;4.110;2024-03-08T17:52:06;100902.91;;;15.10;100.00
73240;BME280;61452;40.054;4.110;2024-03-08T17:57:08;100903.75;;;15.10;100.00
73240;BME280;61452;40.054;4.110;2024-03-08T18:02:11;100901.84;;;15.12;100.00
73240;BME280;61452;40.054;4.110;2024-03-08T18:07:15;100907.03;;;15.14;100.00
73240;BME280;61452;40.054;4.110;2024-03-08T18:12:17;100904.41;;;15.14;100.00
73240;BME280;61452;40.054;4.110;2024-03-08T18:17:19;100910.63;;;15.13;100.00
73240;BME280;61452;40.054;4.110;2024-03-08T18:22:21;100907.13;;;15.12;100.00
73240;BME280;61452;40.054;4.110;2024-03-08T18:27:23;100915.91;;;15.13;100.00
73240;BME280;61452;40.054;4.110;2024-03-08T18:32:29;100918.47;;;15.14;100.00
73240;BME280;61452;40.054;4.110;2024-03-08T18:37:32;100929.78;;;15.16;100.00
73240;BME280;61452;40.054;4.110;2024-03-08T18:42:34;100933.38;;;15.15;100.00
73240;BME280;61452;40.054;4.110;2024-03-08T18:47:38;100948.28;;;15.16;100.00
73240;BME280;61452;40.054;4.110;2024-03-08T18:52:40;100945.81;;;15.13;100.00
73240;BME280;61452;40.054;4.110;2024-03-08T18:57:43;100949.31;;;15.14;100.00
73240;BME280;61452;40.054;4.110;2024-03-08T19:02:50;100955.53;;;15.13;100.00
73240;BME280;61452;40.054;4.110;2024-03-08T19:07:54;100954.59;;;15.14;100.00
73240;BME280;61452;40.054;4.110;2024-03-08T19:12:56;100951.94;;;15.14;100.00
73240;BME280;61452;40.054;4.110;2024-03-08T19:18:01;100958.84;;;15.16;100.00
73240;BME280;61452;40.054;4.110;2024-03-08T19:23:06;100957.06;;;15.17;100.00
73240;BME280;61452;40.054;4.110;2024-03-08T19:28:12;100953.56;;;15.16;100.00
73240;BME280;61452;40.054;4.110;2024-03-08T19:33:15;100959.78;;;15.15;100.00
73240;BME280;61452;40.054;4.110;2024-03-08T19:38:20;100964.22;;;15.15;100.00
73240;BME280;61452;40.054;4.110;2024-03-08T19:43:22;100969.50;;;15.15;100.00
73240;BME280;61452;40.054;4.110;2024-03-08T19:48:29;100963.38;;;15.14;100.00
73240;BME280;61452;40.054;4.110;2024-03-08T19:53:32;100973.75;;;15.17;100.00
73240;BME280;61452;40.054;4.110;2024-03-08T19:58:34;100971.22;;;15.16;100.00
73240;BME280;61452;40.054;4.110;2024-03-08T20:03:37;100961.59;;;15.15;100.00
73240;BME280;61452;40.054;4.110;2024-03-08T20:08:41;100963.59;;;15.11;100.00
73240;BME280;61452;40.054;4.110;2024-03-08T20:13:44;100960.72;;;15.14;100.00
73240;BME280;61452;40.054;4.110;2024-03-08T20:18:48;100966.78;;;15.16;100.00
73240;BME280;61452;40.054;4.110;2024-03-08T20:23:53;100962.44;;;15.15;100.00
73240;BME280;61452;40.054;4.110;2024-03-08T20:28:56;100957.16;;;15.15;100.00
73240;BME280;61452;40.054;4.110;2024-03-08T20:33:59;100958.19;;;15.13;100.00
73240;BME280;61452;40.054;4.110;2024-03-08T20:39:02;100954.69;;;15.12;100.00
73240;BME280;61452;40.054;4.110;2024-03-08T20:44:04;100953.66;;;15.15;100.00
73240;BME280;61452;40.054;4.110;2024-03-08T20:49:06;100965.06;;;15.15;100.00
73240;BME280;61452;40.054;4.110;2024-03-08T20:54:10;100961.59;;;15.15;100.00
73240;BME280;61452;40.054;4.110;2024-03-08T20:59:14;100972.25;;;15.13;100.00
73240;BME280;61452;40.054;4.110;2024-03-08T21:04:16;100968.75;;;15.13;100.00
73240;BME280;61452;40.054;4.110;2024-03-08T21:09:18;100969.50;;;15.15;100.00
73240;BME280;61452;40.054;4.110;2024-03-08T21:14:20;100967.72;;;15.15;100.00
73240;BME280;61452;40.054;4.110;2024-03-08T21:19:23;100972.06;;;15.16;100.00
73240;BME280;61452;40.054;4.110;2024-03-08T21:24:26;100969.50;;;15.15;100.00
73240;BME280;61452;40.054;4.110;2024-03-08T21:29:28;100968.75;;;15.13;100.00
73240;BME280;61452;40.054;4.110;2024-03-08T21:34:30;100981.97;;;15.13;100.00
73240;BME280;61452;40.054;4.110;2024-03-08T21:39:34;100974.88;;;15.13;100.00
73240;BME280;61452;40.054;4.110;2024-03-08T21:44:36;100982.72;;;15.15;100.00
73240;BME280;61452;40.054;4.110;2024-03-08T21:49:38;100971.31;;;15.14;100.00
73240;BME280;61452;40.054;4.110;2024-03-08T21:54:45;100970.66;;;15.11;100.00
73240;BME280;61452;40.054;4.110;2024-03-08T21:59:48;100961.69;;;15.13;100.00
73240;BME280;61452;40.054;4.110;2024-03-08T22:04:50;100958.31;;;15.11;100.00
73240;BME280;61452;40.054;4.110;2024-03-08T22:09:52;100953.75;;;15.13;100.00
73240;BME280;61452;40.054;4.110;2024-03-08T22:14:55;100940.53;;;15.13;100.00
73240;BME280;61452;40.054;4.110;2024-03-08T22:19:57;100941.38;;;15.14;100.00
73240;BME280;61452;40.054;4.110;2024-03-08T22:25:05;100929.25;;;15.11;100.00
73240;BME280;61452;40.054;4.110;2024-03-08T22:30:12;100916.88;;;15.12;100.00
73240;BME280;61452;40.054;4.110;2024-03-08T22:35:17;100917.81;;;15.11;100.00
73240;BME280;61452;40.054;4.110;2024-03-08T22:40:19;100914.13;;;15.13;100.00
73240;BME280;61452;40.054;4.110;2024-03-08T22:45:27;100910.63;;;15.13;100.00
73240;BME280;61452;40.054;4.110;2024-03-08T22:50:29;100910.75;;;15.11;100.00
73240;BME280;61452;40.054;4.110;2024-03-08T22:55:32;100909.16;;;15.09;100.00
73240;BME280;61452;40.054;4.110;2024-03-08T23:00:34;100909.06;;;15.10;100.00
73240;BME280;61452;40.054;4.110;2024-03-08T23:05:46;100914.44;;;15.09;100.00
73240;BME280;61452;40.054;4.110;2024-03-08T23:10:48;100910.75;;;15.11;100.00
73240;BME280;61452;40.054;4.110;2024-03-08T23:15:51;100918.69;;;15.11;100.00
73240;BME280;61452;40.054;4.110;2024-03-08T23:20:53;100917.81;;;15.11;100.00
73240;BME280;61452;40.054;4.110;2024-03-08T23:25:57;100911.16;;;15.05;100.00
73240;BME280;61452;40.054;4.110;2024-03-08T23:30:59;100903.09;;;15.07;100.00
73240;BME280;61452;40.054;4.110;2024-03-08T23:36:02;100900.38;;;15.08;100.00
73240;BME280;61452;40.054;4.110;2024-03-08T23:41:05;100897.53;;;15.11;100.00
73240;BME280;61452;40.054;4.110;2024-03-08T23:46:07;100894.91;;;15.11;100.00
73240;BME280;61452;40.054;4.110;2024-03-08T23:51:09;100883.66;;;15.08;100.00
73240;BME280;61452;40.054;4.110;2024-03-08T23:56:12;100884.59;;;15.07;100.00
